»·PEaware :: N172SP KSNA-KSNA

N172SP :: KSNA-KSNA

FLIGHT INFORMATION

Flight Status: Arrived
Operator: Privately registered:
United States
More flights under this callsign
Pilot: Shaurye C. (26796)
Aircraft: CESSNA 172 SKYHAWK
(C172)
More flights by this aircraft type
Origin: KSNA John Wayne-Orange Co
United States
Destination: KSNA John Wayne-Orange Co
United States
More flights between these airports :: More routes between these airports
Route: +KSNA SLI KSNA
File this flight plan on PilotEdge
Remarks: I-1
Altitude:
(Current/Filed)
3,500ft
Speed:
(Current/Filed)
110kts
Departed: 14-Jan-20 01:04 PM
Arrived: 14-Jan-20 01:34 PM
Distance/Time
Traveled:
0nm/0:30
Distance/Time
To Go:
Arrived

Flight Plot

Page will automatically refresh every two minutes.


Map Options




Map Legend


Flown Route
Filed Route
Departure Airport
Arrival Airport
Navaid (VOR, NDB)
Fix

Horizontal Profiles

Position Reports

Time Latitude Longitude Heading Altitude Ground
Speed
14-Jan-20 12:42 33.669224 -117.870043 41 60ft 0kts
14-Jan-20 12:43 33.669224 -117.870043 41 60ft 0kts
14-Jan-20 12:44 33.669224 -117.870043 41 60ft 0kts
14-Jan-20 12:45 33.669224 -117.870043 41 60ft 0kts
14-Jan-20 12:46 33.669224 -117.870043 41 60ft 0kts
14-Jan-20 12:47 33.669224 -117.870043 41 60ft 0kts
14-Jan-20 12:48 33.669224 -117.870043 41 60ft 0kts
14-Jan-20 12:49 33.669224 -117.870043 41 60ft 0kts
14-Jan-20 12:50 33.669224 -117.870043 41 60ft 0kts
14-Jan-20 12:51 33.669224 -117.870043 41 60ft 0kts
14-Jan-20 12:52 33.669224 -117.870043 41 60ft 0kts
14-Jan-20 12:53 33.669224 -117.870043 41 60ft 0kts
14-Jan-20 12:54 33.669224 -117.870043 41 60ft 0kts
14-Jan-20 12:55 33.669224 -117.870043 41 60ft 0kts
14-Jan-20 12:56 33.669224 -117.870043 41 60ft 0kts
14-Jan-20 12:57 33.669224 -117.870043 41 60ft 0kts
14-Jan-20 12:58 33.670055 -117.870154 41 60ft 8kts
14-Jan-20 12:59 33.673736 -117.867215 330 60ft 5kts
14-Jan-20 13:00 33.675842 -117.865978 27 60ft 23kts
14-Jan-20 13:01 33.679933 -117.863563 310 60ft 4kts
14-Jan-20 13:02 33.679956 -117.863603 299 60ft 0kts
14-Jan-20 13:03 33.676992 -117.866127 207 60ft 76kts
14-Jan-20 13:04 33.657946 -117.883657 220 723ft 107kts
14-Jan-20 13:05 33.637848 -117.904132 221 1438ft 109kts
14-Jan-20 13:06 33.615461 -117.926264 221 2201ft 109kts
14-Jan-20 13:07 33.585660 -117.956498 249 3046ft 116kts
14-Jan-20 13:08 33.611769 -117.969299 11 3054ft 112kts
14-Jan-20 13:09 33.640524 -117.961352 11 3023ft 113kts
14-Jan-20 13:10 33.669550 -117.953411 11 3003ft 111kts
14-Jan-20 13:11 33.696203 -117.946110 11 3003ft 111kts
14-Jan-20 13:12 33.722526 -117.938839 13 3003ft 111kts
14-Jan-20 13:14 33.745208 -117.921912 31 3002ft 113kts
14-Jan-20 13:15 33.767271 -117.904145 31 3002ft 113kts
14-Jan-20 13:16 33.789550 -117.886204 31 3002ft 113kts
14-Jan-20 13:17 33.812242 -117.867928 31 3003ft 113kts
14-Jan-20 13:18 33.834803 -117.849757 31 3003ft 113kts
14-Jan-20 13:19 33.858349 -117.830801 31 3005ft 113kts
14-Jan-20 13:20 33.882807 -117.811210 31 3007ft 113kts
14-Jan-20 13:21 33.908862 -117.790476 31 3009ft 113kts
14-Jan-20 13:22 33.934288 -117.768288 62 3009ft 116kts
14-Jan-20 13:23 33.917659 -117.734356 131 3012ft 122kts
14-Jan-20 13:24 33.888421 -117.714176 217 2999ft 121kts
14-Jan-20 13:25 33.866376 -117.744342 219 2990ft 121kts
14-Jan-20 13:26 33.839177 -117.764704 211 3008ft 122kts
14-Jan-20 13:27 33.811550 -117.782657 210 2895ft 123kts
14-Jan-20 13:28 33.784591 -117.799940 210 2351ft 118kts
14-Jan-20 13:29 33.761557 -117.814563 210 1853ft 112kts
14-Jan-20 13:30 33.739495 -117.828533 209 1368ft 111kts
14-Jan-20 13:31 33.717542 -117.842425 209 884ft 109kts
14-Jan-20 13:32 33.699228 -117.854010 207 494ft 58kts
14-Jan-20 13:33 33.687468 -117.861396 207 230ft 60kts
14-Jan-20 13:34 33.677918 -117.867727 250 60ft 15kts
14-Jan-20 13:34 33.678086 -117.868340 293 60ft 2kts
14-Jan-20 13:36 33.676299 -117.870575 300 60ft 11kts
14-Jan-20 13:37 33.676265 -117.871330 200 60ft 0kts
14-Jan-20 13:37 33.676266 -117.871330 200 60ft 0kts
14-Jan-20 13:39 33.676266 -117.871330 200 60ft 0kts
14-Jan-20 13:39 33.676266 -117.871330 200 60ft 0kts
14-Jan-20 13:40 33.676266 -117.871330 200 60ft 0kts
14-Jan-20 13:42 33.676266 -117.871330 200 60ft 0kts

Navigation Log

Ident Type
Flight plan parsing failed, navigation log unavailable